createdAt,value
2022-11-08T00:02:21.267Z,3.47
2022-11-08T00:04:47.969Z,3.28
2022-11-08T00:07:33.178Z,3.72
2022-11-08T00:10:18.584Z,4.50
2022-11-08T00:13:03.978Z,3.38
2022-11-08T00:15:33.448Z,3.20
2022-11-08T00:18:00.083Z,3.83
2022-11-08T00:20:26.725Z,3.95
2022-11-08T00:22:53.349Z,3.92
2022-11-08T00:25:19.961Z,3.40
2022-11-08T00:27:46.623Z,3.30
2022-11-08T00:30:13.307Z,3.70
2022-11-08T00:32:39.948Z,3.65
2022-11-08T00:35:06.884Z,4.28
2022-11-08T00:37:33.455Z,4.28
2022-11-08T00:40:00.098Z,3.72
2022-11-08T00:42:26.701Z,3.78
2022-11-08T00:44:53.339Z,3.78
2022-11-08T00:47:19.935Z,4.20
2022-11-08T00:49:46.548Z,4.22
2022-11-08T00:52:13.180Z,4.30
2022-11-08T00:54:39.819Z,4.38
2022-11-08T00:57:06.413Z,4.53
2022-11-08T00:59:33.031Z,4.47
2022-11-08T01:01:59.716Z,4.38
2022-11-08T01:04:26.441Z,4.85
2022-11-08T01:06:53.018Z,5.43
2022-11-08T01:09:19.576Z,4.85
2022-11-08T01:11:47.837Z,5.30
2022-11-08T01:14:15.140Z,5.45
2022-11-08T01:16:42.162Z,5.22
2022-11-08T01:19:09.042Z,5.47
2022-11-08T01:21:35.662Z,6.03
2022-11-08T01:24:02.294Z,5.97
2022-11-08T01:26:29.655Z,5.65
2022-11-08T01:28:57.563Z,5.50
2022-11-08T01:31:25.984Z,5.93
2022-11-08T01:33:52.881Z,6.57
2022-11-08T01:36:23.132Z,6.97
2022-11-08T01:38:50.001Z,6.95
2022-11-08T01:41:17.065Z,6.65
2022-11-08T01:43:43.694Z,7.38
2022-11-08T01:46:13.283Z,7.18
2022-11-08T01:48:42.133Z,7.45
2022-11-08T01:51:10.251Z,7.22
2022-11-08T01:53:37.586Z,7.32
2022-11-08T01:56:04.584Z,7.70
2022-11-08T01:58:34.099Z,8.75
2022-11-08T02:01:02.061Z,8.07
2022-11-08T02:03:30.789Z,7.53
2022-11-08T02:06:05.762Z,8.40
2022-11-08T02:08:34.610Z,7.72
2022-11-08T02:11:01.804Z,8.07
2022-11-08T02:13:29.578Z,7.75
2022-11-08T02:15:56.177Z,7.10
2022-11-08T02:18:24.459Z,6.88
2022-11-08T02:20:58.426Z,6.20
2022-11-08T02:23:29.000Z,7.40
2022-11-08T02:25:56.100Z,7.05
2022-11-08T02:28:22.740Z,6.88
2022-11-08T02:30:49.374Z,7.18
2022-11-08T02:33:15.950Z,7.32
2022-11-08T02:35:42.762Z,7.03
2022-11-08T02:38:09.328Z,7.50
2022-11-08T02:40:52.602Z,7.85
2022-11-08T02:43:19.575Z,7.60
2022-11-08T02:45:46.366Z,8.50
2022-11-08T02:48:13.044Z,7.93
2022-11-08T02:50:40.006Z,8.00
2022-11-08T02:53:06.925Z,8.30
2022-11-08T02:55:34.537Z,8.40
2022-11-08T02:58:01.559Z,7.75
2022-11-08T03:00:28.307Z,8.30
2022-11-08T03:02:55.251Z,8.05
2022-11-08T03:05:22.177Z,7.60
2022-11-08T03:07:48.801Z,8.27
2022-11-08T03:10:15.820Z,7.43
2022-11-08T03:12:43.073Z,6.57
2022-11-08T03:15:10.825Z,6.97
2022-11-08T03:17:37.788Z,7.10
2022-11-08T03:20:05.286Z,6.25
2022-11-08T03:22:31.838Z,6.82
2022-11-08T03:24:58.422Z,6.22
2022-11-08T03:27:25.044Z,6.55
2022-11-08T03:29:51.645Z,6.63
2022-11-08T03:32:18.304Z,6.97
2022-11-08T03:34:44.902Z,7.78
2022-11-08T03:37:11.560Z,6.70
2022-11-08T03:39:38.205Z,6.88
2022-11-08T03:42:05.034Z,7.35
2022-11-08T03:44:32.517Z,8.07
2022-11-08T03:47:00.225Z,8.15
2022-11-08T03:49:27.236Z,9.50
2022-11-08T03:51:54.127Z,8.13
2022-11-08T03:54:20.703Z,7.68
2022-11-08T03:56:47.437Z,8.55
2022-11-08T03:59:14.031Z,8.30
2022-11-08T04:01:40.675Z,8.00
2022-11-08T04:04:07.497Z,7.70
2022-11-08T04:06:34.172Z,8.25
2022-11-08T04:09:00.989Z,7.80
2022-11-08T04:11:46.053Z,8.27
2022-11-08T04:14:31.363Z,7.88
2022-11-08T04:16:57.969Z,8.00
2022-11-08T04:19:43.228Z,7.97
2022-11-08T04:22:10.861Z,7.88
2022-11-08T04:24:37.678Z,7.22
2022-11-08T04:27:04.281Z,7.90
2022-11-08T04:29:30.948Z,8.50
2022-11-08T04:31:57.674Z,8.70
2022-11-08T04:34:24.298Z,8.20
2022-11-08T04:36:50.914Z,8.23
2022-11-08T04:39:17.612Z,9.32
2022-11-08T04:41:44.215Z,9.65
2022-11-08T04:44:11.778Z,9.27
2022-11-08T04:46:38.377Z,9.88
2022-11-08T04:49:04.966Z,10.00
2022-11-08T04:51:32.566Z,9.73
2022-11-08T04:54:00.396Z,9.65
2022-11-08T04:56:28.147Z,9.32
2022-11-08T04:58:55.972Z,8.30
2022-11-08T05:01:23.831Z,9.85
2022-11-08T05:03:51.754Z,9.23
2022-11-08T05:06:19.606Z,9.73
2022-11-08T05:08:46.378Z,10.20
2022-11-08T05:11:14.095Z,10.52
2022-11-08T05:13:40.977Z,10.10
2022-11-08T05:16:12.658Z,9.70
2022-11-08T05:18:41.708Z,9.82
2022-11-08T05:21:28.929Z,9.68
2022-11-08T05:23:55.539Z,10.52
2022-11-08T05:26:22.225Z,9.75
2022-11-08T05:28:48.869Z,10.30
2022-11-08T05:31:15.914Z,10.10
2022-11-08T05:33:42.855Z,11.02
2022-11-08T05:36:10.821Z,9.63
2022-11-08T05:38:38.010Z,10.13
2022-11-08T05:41:11.806Z,10.70
2022-11-08T05:43:39.063Z,10.48
2022-11-08T05:46:06.249Z,10.60
2022-11-08T05:48:32.965Z,10.82
2022-11-08T05:50:59.594Z,10.38
2022-11-08T05:53:27.048Z,10.52
2022-11-08T05:55:57.516Z,11.05
2022-11-08T05:58:24.078Z,10.60
2022-11-08T06:00:50.665Z,11.25
2022-11-08T06:03:20.916Z,9.63
2022-11-08T06:05:49.277Z,10.23
2022-11-08T06:08:15.888Z,10.40
2022-11-08T06:10:42.664Z,9.77
2022-11-08T06:13:09.292Z,10.40
2022-11-08T06:15:35.881Z,10.27
2022-11-08T06:18:03.862Z,11.40
2022-11-08T06:20:30.577Z,10.48
2022-11-08T06:22:57.217Z,10.65
2022-11-08T06:25:23.848Z,10.50
2022-11-08T06:27:50.581Z,10.50
2022-11-08T06:30:17.212Z,10.32
2022-11-08T06:32:43.869Z,9.75
2022-11-08T06:35:10.513Z,10.82
2022-11-08T06:37:37.157Z,10.32
2022-11-08T06:40:03.927Z,10.63
2022-11-08T06:42:30.536Z,11.63
2022-11-08T06:44:57.146Z,10.40
2022-11-08T06:47:23.732Z,9.93
2022-11-08T06:49:50.373Z,9.93
2022-11-08T06:52:16.987Z,10.63
2022-11-08T06:54:43.540Z,10.45
2022-11-08T06:57:10.123Z,9.95
2022-11-08T06:59:36.741Z,9.80
2022-11-08T07:02:03.528Z,11.23
2022-11-08T07:04:30.162Z,11.68
2022-11-08T07:06:56.897Z,29.30
2022-11-08T07:09:23.507Z,25.35
2022-11-08T07:11:50.111Z,14.27
2022-11-08T07:14:16.797Z,11.73
2022-11-08T07:16:43.474Z,10.52
2022-11-08T07:19:10.131Z,9.77
2022-11-08T07:21:36.771Z,10.48
2022-11-08T07:24:03.738Z,11.38
2022-11-08T07:26:30.445Z,10.43
2022-11-08T07:28:57.169Z,9.95
2022-11-08T07:31:24.131Z,11.68
2022-11-08T07:33:50.767Z,12.00
2022-11-08T07:36:17.355Z,14.13
2022-11-08T07:38:43.954Z,12.90
2022-11-08T07:41:10.662Z,12.43
2022-11-08T07:43:37.966Z,14.60
2022-11-08T07:46:15.545Z,14.70
2022-11-08T07:48:42.116Z,15.98
2022-11-08T07:51:08.810Z,16.30
2022-11-08T07:53:35.474Z,17.75
2022-11-08T07:56:02.062Z,15.43
2022-11-08T07:58:28.721Z,12.60
2022-11-08T08:00:59.740Z,12.95
2022-11-08T08:03:26.488Z,12.18
2022-11-08T08:05:59.427Z,13.50
2022-11-08T08:08:27.908Z,13.63
2022-11-08T08:10:59.176Z,10.50
2022-11-08T08:13:25.931Z,10.65
2022-11-08T08:15:52.568Z,10.15
2022-11-08T08:18:21.016Z,11.77
2022-11-08T08:20:47.868Z,10.68
2022-11-08T08:23:14.617Z,11.07
2022-11-08T08:25:41.307Z,11.73
2022-11-08T08:28:09.002Z,12.80
2022-11-08T08:30:36.829Z,11.75
2022-11-08T08:33:28.672Z,13.57
2022-11-08T08:35:56.396Z,10.82
2022-11-08T08:38:23.064Z,9.98
2022-11-08T08:40:50.414Z,8.93
2022-11-08T08:43:17.524Z,9.10
2022-11-08T08:45:44.506Z,10.63
2022-11-08T08:48:11.125Z,9.32
2022-11-08T08:50:37.963Z,9.23
2022-11-08T08:53:05.563Z,9.13
2022-11-08T08:55:32.733Z,8.85
2022-11-08T08:57:59.352Z,8.25
2022-11-08T09:03:12.853Z,9.80
2022-11-08T09:05:44.077Z,9.25
2022-11-08T09:08:11.213Z,8.85
2022-11-08T09:10:38.215Z,8.85
2022-11-08T09:13:05.215Z,9.73
2022-11-08T09:15:31.850Z,9.45
2022-11-08T09:17:58.624Z,10.07
2022-11-08T09:20:25.724Z,9.48
2022-11-08T09:22:52.414Z,9.75
2022-11-08T09:25:19.216Z,10.52
2022-11-08T09:27:45.915Z,9.40
2022-11-08T09:30:12.593Z,9.95
2022-11-08T09:32:59.816Z,10.45
2022-11-08T09:35:25.905Z,10.30
2022-11-08T09:37:53.232Z,10.38
2022-11-08T09:40:40.168Z,10.07
2022-11-08T09:43:21.767Z,10.68
2022-11-08T09:45:49.986Z,10.63
2022-11-08T09:48:36.857Z,10.90
2022-11-08T09:51:23.407Z,10.48
2022-11-08T09:53:53.020Z,10.60
2022-11-08T09:56:25.771Z,10.55
2022-11-08T09:58:54.527Z,12.05
2022-11-08T10:01:26.978Z,11.27
2022-11-08T10:03:55.258Z,10.98
2022-11-08T10:06:27.899Z,10.70
2022-11-08T10:09:06.190Z,11.23
2022-11-08T10:11:52.077Z,11.07
2022-11-08T10:14:25.010Z,11.55
2022-11-08T10:16:54.622Z,10.75
2022-11-08T10:19:29.020Z,11.30
2022-11-08T10:21:55.563Z,10.43
2022-11-08T10:24:35.829Z,11.23
2022-11-08T10:27:03.859Z,10.13
2022-11-08T10:29:38.537Z,11.23
2022-11-08T10:32:13.813Z,11.23
2022-11-08T10:34:47.533Z,11.18
2022-11-08T10:37:15.608Z,10.52
2022-11-08T10:40:08.247Z,11.65
2022-11-08T10:42:39.219Z,10.38
2022-11-08T10:45:06.047Z,11.00
2022-11-08T10:47:33.370Z,9.98
2022-11-08T10:50:04.028Z,10.90
2022-11-08T10:52:40.853Z,10.00
2022-11-08T10:55:08.459Z,10.77
2022-11-08T10:57:45.185Z,11.30
2022-11-08T11:00:20.764Z,10.20
2022-11-08T11:03:07.672Z,10.30
2022-11-08T11:05:40.622Z,10.88
2022-11-08T11:08:10.265Z,10.82
2022-11-08T11:10:40.797Z,10.43
2022-11-08T11:13:19.832Z,10.52
2022-11-08T11:15:51.057Z,10.55
2022-11-08T11:18:35.827Z,10.60
2022-11-08T11:21:09.938Z,9.43
2022-11-08T11:23:36.601Z,10.10
2022-11-08T11:26:04.317Z,9.50
2022-11-08T11:28:31.168Z,9.68
2022-11-08T11:31:02.684Z,10.00
2022-11-08T11:33:30.013Z,9.60
2022-11-08T11:36:29.229Z,9.80
2022-11-08T11:38:55.838Z,9.55
2022-11-08T11:41:26.358Z,9.43
2022-11-08T11:43:59.240Z,10.15
2022-11-08T11:46:43.648Z,10.32
2022-11-08T11:49:16.844Z,9.52
2022-11-08T11:51:43.676Z,9.80
2022-11-08T11:54:11.590Z,10.13
2022-11-08T11:56:56.874Z,9.30
2022-11-08T11:59:32.274Z,9.27
2022-11-08T12:02:17.758Z,9.85
2022-11-08T12:04:47.473Z,9.13
2022-11-08T12:07:27.886Z,8.88
2022-11-08T12:10:13.178Z,9.30
2022-11-08T12:12:55.024Z,9.07
2022-11-08T12:15:30.993Z,8.43
2022-11-08T12:18:07.028Z,7.97
2022-11-08T12:20:48.003Z,8.52
2022-11-08T12:23:30.679Z,7.78
2022-11-08T12:26:15.836Z,7.15
2022-11-08T12:28:45.931Z,6.72
2022-11-08T12:31:27.300Z,6.78
2022-11-08T12:33:58.345Z,6.82
2022-11-08T12:36:38.361Z,5.63
2022-11-08T12:39:23.522Z,5.95
2022-11-08T12:41:50.423Z,5.82
2022-11-08T12:44:29.223Z,5.47
2022-11-08T12:47:08.922Z,6.10
2022-11-08T12:49:50.928Z,5.70
2022-11-08T12:52:23.647Z,5.20
2022-11-08T12:55:00.688Z,4.70
2022-11-08T12:57:31.349Z,4.72
2022-11-08T12:59:57.946Z,4.82
2022-11-08T13:02:26.187Z,5.32
2022-11-08T13:05:00.030Z,5.57
2022-11-08T13:07:30.269Z,5.60
2022-11-08T13:10:01.654Z,5.65
2022-11-08T13:12:28.258Z,6.38
2022-11-08T13:14:55.511Z,6.25
2022-11-08T13:17:24.918Z,6.00
2022-11-08T13:19:51.613Z,6.47
2022-11-08T13:22:31.116Z,6.20
2022-11-08T13:24:57.763Z,7.00
2022-11-08T13:27:24.647Z,7.60
2022-11-08T13:29:52.549Z,6.97
2022-11-08T13:32:49.748Z,6.65
2022-11-08T13:35:25.865Z,7.18
2022-11-08T13:38:01.010Z,6.55
2022-11-08T13:40:33.308Z,6.50
2022-11-08T13:43:14.969Z,6.65
2022-11-08T13:45:41.980Z,6.82
2022-11-08T13:48:22.266Z,6.50
2022-11-08T13:50:58.865Z,6.60
2022-11-08T13:53:41.782Z,5.85
2022-11-08T13:56:08.428Z,5.85
2022-11-08T13:58:34.969Z,5.75
2022-11-08T14:01:02.978Z,5.38
2022-11-08T14:03:32.601Z,5.65
2022-11-08T14:06:05.380Z,5.38
2022-11-08T14:08:41.558Z,5.20
2022-11-08T14:11:23.391Z,6.20
2022-11-08T14:14:02.617Z,5.70
2022-11-08T14:16:31.601Z,6.25
2022-11-08T14:19:18.912Z,5.47
2022-11-08T14:21:58.762Z,5.43
2022-11-08T14:24:27.240Z,5.22
2022-11-08T14:26:53.901Z,4.90
2022-11-08T14:29:21.927Z,5.40
2022-11-08T14:31:48.605Z,5.22
2022-11-08T14:34:37.813Z,5.30
2022-11-08T14:37:05.158Z,4.38
2022-11-08T14:39:33.526Z,4.07
2022-11-08T14:42:02.267Z,4.15
2022-11-08T14:44:29.568Z,4.85
2022-11-08T14:46:56.538Z,4.57
2022-11-08T14:49:30.188Z,4.65
2022-11-08T14:52:17.414Z,4.30
2022-11-08T14:54:45.381Z,4.85
2022-11-08T14:57:32.155Z,4.50
2022-11-08T14:59:59.068Z,4.60
2022-11-08T15:02:25.974Z,5.35
2022-11-08T15:04:53.051Z,5.97
2022-11-08T15:07:21.443Z,5.43
2022-11-08T15:09:48.603Z,6.03
2022-11-08T15:12:16.610Z,5.85
2022-11-08T15:14:48.275Z,5.30
2022-11-08T15:17:41.334Z,4.53
2022-11-08T15:20:11.212Z,4.72
2022-11-08T15:22:37.958Z,3.97
2022-11-08T15:25:23.842Z,3.92
2022-11-08T15:27:54.998Z,3.63
2022-11-08T15:30:22.971Z,3.72
2022-11-08T15:32:49.850Z,3.42
2022-11-08T15:35:23.696Z,3.20
2022-11-08T15:37:52.981Z,2.60
2022-11-08T15:40:22.669Z,2.47
2022-11-08T15:42:50.950Z,2.92
2022-11-08T15:45:17.675Z,2.00
2022-11-08T15:47:46.173Z,2.22
2022-11-08T15:50:23.570Z,2.25
2022-11-08T15:52:51.477Z,2.15
2022-11-08T15:55:19.933Z,1.90
2022-11-08T15:57:47.081Z,2.42
2022-11-08T16:00:15.223Z,1.60
2022-11-08T16:02:41.903Z,2.20
2022-11-08T16:05:19.320Z,1.58
2022-11-08T16:07:46.822Z,1.83
2022-11-08T16:10:14.362Z,1.75
2022-11-08T16:12:42.762Z,1.77
2022-11-08T16:15:13.202Z,1.80
2022-11-08T16:17:40.125Z,1.73
2022-11-08T16:20:25.475Z,2.00
2022-11-08T16:22:52.099Z,2.13
2022-11-08T16:25:18.742Z,1.75
2022-11-08T16:27:47.882Z,1.92
2022-11-08T16:30:16.224Z,2.20
2022-11-08T16:32:43.191Z,2.70
2022-11-08T16:35:10.734Z,2.50
2022-11-08T16:37:37.858Z,2.47
2022-11-08T16:40:15.617Z,2.67
2022-11-08T16:42:42.265Z,2.40
2022-11-08T16:45:09.219Z,2.05
2022-11-08T16:47:36.031Z,1.85
2022-11-08T16:50:02.872Z,2.20
2022-11-08T16:52:29.543Z,1.98
2022-11-08T16:54:56.188Z,1.70
2022-11-08T16:57:38.297Z,1.70
2022-11-08T17:00:05.159Z,1.38
2022-11-08T17:02:33.148Z,1.50
2022-11-08T17:05:00.100Z,1.42
2022-11-08T17:07:27.786Z,1.65
2022-11-08T17:09:54.563Z,2.10
2022-11-08T17:12:21.542Z,1.80
2022-11-08T17:14:48.148Z,1.40
2022-11-08T17:17:15.337Z,1.40
2022-11-08T17:19:41.968Z,1.30
2022-11-08T17:22:08.524Z,1.55
2022-11-08T17:24:35.239Z,1.33
2022-11-08T17:27:02.404Z,1.20
2022-11-08T17:29:29.034Z,1.30
2022-11-08T17:31:55.694Z,1.20
2022-11-08T17:34:22.321Z,1.15
2022-11-08T17:36:52.598Z,1.23
2022-11-08T17:39:19.247Z,1.20
2022-11-08T17:41:45.834Z,1.17
2022-11-08T17:44:12.499Z,1.33
2022-11-08T17:46:39.203Z,1.35
2022-11-08T17:49:05.823Z,1.50
2022-11-08T17:51:32.432Z,1.40
2022-11-08T17:53:59.104Z,1.60
2022-11-08T17:56:25.881Z,1.23
2022-11-08T17:58:52.509Z,2.03
2022-11-08T18:01:19.763Z,1.65
2022-11-08T18:03:46.531Z,2.00
2022-11-08T18:06:14.203Z,2.00
2022-11-08T18:08:42.110Z,2.40
2022-11-08T18:11:09.149Z,1.98
2022-11-08T18:13:35.799Z,1.65
2022-11-08T18:16:23.744Z,2.80
2022-11-08T18:18:50.751Z,2.05
2022-11-08T18:21:17.957Z,2.17
2022-11-08T18:23:46.134Z,2.30
2022-11-08T18:26:13.948Z,1.77
2022-11-08T18:28:42.464Z,2.15
2022-11-08T18:31:11.137Z,1.75
2022-11-08T18:33:38.422Z,2.17
2022-11-08T18:36:06.297Z,2.03
2022-11-08T18:38:33.087Z,1.50
2022-11-08T18:40:59.661Z,1.63
2022-11-08T18:43:26.258Z,2.50
2022-11-08T18:45:52.882Z,3.25
2022-11-08T18:48:19.516Z,2.42
2022-11-08T18:50:50.259Z,2.50
2022-11-08T18:53:17.235Z,2.08
2022-11-08T18:55:44.734Z,1.50
2022-11-08T18:58:11.398Z,1.55
2022-11-08T19:00:38.052Z,2.05
2022-11-08T19:03:04.708Z,2.35
2022-11-08T19:05:31.820Z,2.10
2022-11-08T19:07:58.436Z,3.22
2022-11-08T19:10:25.197Z,2.80
2022-11-08T19:12:51.798Z,2.70
2022-11-08T19:15:18.569Z,3.45
2022-11-08T19:17:49.790Z,3.42
2022-11-08T19:20:18.836Z,2.80
2022-11-08T19:22:45.458Z,2.92
2022-11-08T19:25:12.351Z,2.50
2022-11-08T19:27:38.944Z,2.90
2022-11-08T19:30:05.831Z,4.82
2022-11-08T19:32:32.423Z,3.80
2022-11-08T19:34:59.057Z,3.65
2022-11-08T19:37:25.610Z,3.65
2022-11-08T19:39:52.213Z,2.85
2022-11-08T19:42:18.953Z,2.63
2022-11-08T19:44:45.551Z,2.50
2022-11-08T19:47:12.151Z,2.42
2022-11-08T19:49:38.945Z,2.45
2022-11-08T19:52:05.558Z,2.95
2022-11-08T19:54:32.172Z,2.40
2022-11-08T19:57:06.564Z,2.53
2022-11-08T19:59:33.332Z,2.10
2022-11-08T20:02:00.583Z,2.90
2022-11-08T20:04:27.351Z,2.80
2022-11-08T20:06:54.027Z,3.17
2022-11-08T20:09:21.336Z,2.58
2022-11-08T20:11:50.300Z,2.70
2022-11-08T20:14:16.960Z,2.50
2022-11-08T20:16:46.710Z,2.92
2022-11-08T20:19:16.573Z,2.80
2022-11-08T20:21:46.196Z,4.00
2022-11-08T20:24:13.680Z,3.92
2022-11-08T20:26:41.487Z,3.30
2022-11-08T20:29:08.493Z,3.30
2022-11-08T20:31:35.294Z,3.28
2022-11-08T20:34:05.696Z,2.70
2022-11-08T20:36:35.269Z,2.75
2022-11-08T20:39:06.845Z,3.33
2022-11-08T20:41:38.722Z,3.35
2022-11-08T20:44:05.990Z,3.25
2022-11-08T20:46:33.235Z,3.85
2022-11-08T20:49:01.152Z,4.57
2022-11-08T20:51:28.609Z,4.53
2022-11-08T20:53:55.793Z,4.30
2022-11-08T20:56:23.440Z,4.30
2022-11-08T20:58:50.736Z,4.50
2022-11-08T21:01:19.014Z,3.80
2022-11-08T21:03:45.995Z,4.38
2022-11-08T21:06:14.101Z,3.70
2022-11-08T21:11:27.529Z,4.10
2022-11-08T21:13:54.115Z,3.63
2022-11-08T21:16:29.789Z,3.90
2022-11-08T21:18:58.365Z,3.78
2022-11-08T21:21:25.758Z,4.18
2022-11-08T21:23:52.749Z,4.30
2022-11-08T21:26:19.423Z,3.83
2022-11-08T21:28:46.290Z,4.28
2022-11-08T21:31:13.282Z,4.00
2022-11-08T21:33:39.987Z,3.80
2022-11-08T21:36:07.103Z,3.28
2022-11-08T21:38:37.295Z,3.35
2022-11-08T21:41:05.560Z,3.30
2022-11-08T21:43:39.406Z,3.03
2022-11-08T21:46:16.609Z,3.53
2022-11-08T21:48:43.597Z,2.95
2022-11-08T21:51:10.199Z,4.25
2022-11-08T21:53:45.148Z,3.80
2022-11-08T21:56:14.691Z,3.53
2022-11-08T21:58:41.359Z,4.05
2022-11-08T22:01:08.033Z,3.97
2022-11-08T22:03:35.060Z,4.40
2022-11-08T22:06:01.709Z,3.90
2022-11-08T22:08:28.534Z,4.32
2022-11-08T22:10:55.279Z,3.80
2022-11-08T22:13:22.041Z,4.10
2022-11-08T22:15:48.803Z,4.00
2022-11-08T22:18:22.494Z,3.70
2022-11-08T22:21:16.562Z,4.10
2022-11-08T22:23:43.119Z,4.45
2022-11-08T22:26:09.750Z,4.90
2022-11-08T22:28:36.494Z,5.00
2022-11-08T22:31:03.253Z,5.25
2022-11-08T22:33:29.903Z,5.32
2022-11-08T22:35:56.623Z,4.65
2022-11-08T22:38:23.202Z,5.05
2022-11-08T22:40:49.822Z,5.72
2022-11-08T22:43:16.552Z,4.32
2022-11-08T22:45:43.678Z,4.78
2022-11-08T22:48:10.863Z,4.70
2022-11-08T22:50:37.702Z,5.60
2022-11-08T22:53:04.303Z,5.30
2022-11-08T22:55:30.939Z,5.40
2022-11-08T22:57:57.510Z,5.15
2022-11-08T23:00:24.218Z,4.80
2022-11-08T23:02:50.867Z,4.72
2022-11-08T23:05:17.460Z,4.30
2022-11-08T23:07:44.042Z,4.70
2022-11-08T23:10:10.660Z,4.28
2022-11-08T23:12:56.035Z,3.83
2022-11-08T23:15:34.761Z,4.55
2022-11-08T23:18:01.334Z,3.88
2022-11-08T23:20:46.507Z,4.20
2022-11-08T23:23:31.725Z,3.88
2022-11-08T23:25:58.469Z,4.43
2022-11-08T23:28:43.633Z,3.55
2022-11-08T23:31:31.943Z,3.20
2022-11-08T23:33:58.804Z,3.53
2022-11-08T23:36:27.586Z,3.92
2022-11-08T23:38:57.064Z,3.53
2022-11-08T23:41:42.629Z,4.07
2022-11-08T23:44:24.440Z,3.40
2022-11-08T23:46:52.155Z,2.80
2022-11-08T23:49:18.970Z,2.78
2022-11-08T23:51:45.652Z,2.63
2022-11-08T23:54:12.320Z,3.22
2022-11-08T23:56:39.272Z,3.00
2022-11-08T23:59:05.990Z,3.88
